createdAt,value
2018-11-26T00:00:15.243Z,21.10
2018-11-26T00:02:43.902Z,21.10
2018-11-26T00:05:12.346Z,21.10
2018-11-26T00:07:40.850Z,21.10
2018-11-26T00:10:20.651Z,21.00
2018-11-26T00:12:49.135Z,21.00
2018-11-26T00:15:17.740Z,21.00
2018-11-26T00:17:46.394Z,21.00
2018-11-26T00:20:15.043Z,20.90
2018-11-26T00:22:43.509Z,21.00
2018-11-26T00:25:12.034Z,20.90
2018-11-26T00:27:40.678Z,20.90
2018-11-26T00:30:09.147Z,20.90
2018-11-26T00:32:37.722Z,20.80
2018-11-26T00:35:06.424Z,20.80
2018-11-26T00:37:35.050Z,20.80
2018-11-26T00:40:03.650Z,20.80
2018-11-26T00:42:32.133Z,20.80
2018-11-26T00:45:00.613Z,20.70
2018-11-26T00:47:29.342Z,20.70
2018-11-26T00:49:57.874Z,20.70
2018-11-26T00:52:26.505Z,20.70
2018-11-26T00:54:54.963Z,20.70
2018-11-26T00:57:23.446Z,20.70
2018-11-26T00:59:51.916Z,20.70
2018-11-26T01:02:20.355Z,20.60
2018-11-26T01:04:49.258Z,20.60
2018-11-26T01:07:17.880Z,20.60
2018-11-26T01:09:46.310Z,20.60
2018-11-26T01:12:14.775Z,20.60
2018-11-26T01:14:43.417Z,20.60
2018-11-26T01:17:11.907Z,20.50
2018-11-26T01:19:40.565Z,20.50
2018-11-26T01:22:09.359Z,20.50
2018-11-26T01:24:38.126Z,20.50
2018-11-26T01:27:06.731Z,20.50
2018-11-26T01:29:35.178Z,20.50
2018-11-26T01:32:03.611Z,20.40
2018-11-26T01:34:32.235Z,20.40
2018-11-26T01:37:00.670Z,20.40
2018-11-26T01:39:29.421Z,20.40
2018-11-26T01:41:58.120Z,20.40
2018-11-26T01:44:26.736Z,20.40
2018-11-26T01:46:55.221Z,20.40
2018-11-26T01:49:23.837Z,20.30
2018-11-26T01:51:52.302Z,20.30
2018-11-26T01:54:21.002Z,20.30
2018-11-26T01:56:50.492Z,20.30
2018-11-26T01:59:19.022Z,20.30
2018-11-26T02:01:47.694Z,20.30
2018-11-26T02:04:16.266Z,20.30
2018-11-26T02:06:44.919Z,20.20
2018-11-26T02:09:13.410Z,20.20
2018-11-26T02:11:41.929Z,20.20
2018-11-26T02:14:10.379Z,20.20
2018-11-26T02:16:38.898Z,20.20
2018-11-26T02:19:07.404Z,20.20
2018-11-26T02:21:36.024Z,20.20
2018-11-26T02:24:04.482Z,20.20
2018-11-26T02:26:32.955Z,20.20
2018-11-26T02:29:01.528Z,20.20
2018-11-26T02:31:30.050Z,20.10
2018-11-26T02:33:58.741Z,20.10
2018-11-26T02:36:27.166Z,20.10
2018-11-26T02:38:55.604Z,20.10
2018-11-26T02:41:24.215Z,20.10
2018-11-26T02:43:52.689Z,20.10
2018-11-26T02:46:21.292Z,20.10
2018-11-26T02:48:49.863Z,20.10
2018-11-26T02:51:18.492Z,20.10
2018-11-26T02:53:46.987Z,20.00
2018-11-26T02:56:15.509Z,20.00
2018-11-26T02:58:44.166Z,20.00
2018-11-26T03:01:12.773Z,20.00
2018-11-26T03:03:42.789Z,20.00
2018-11-26T03:06:11.467Z,20.00
2018-11-26T03:08:40.086Z,20.00
2018-11-26T03:11:09.110Z,19.90
2018-11-26T03:13:37.613Z,19.90
2018-11-26T03:16:06.753Z,19.90
2018-11-26T03:18:35.411Z,19.90
2018-11-26T03:21:04.189Z,19.90
2018-11-26T03:23:32.674Z,19.90
2018-11-26T03:26:01.262Z,19.90
2018-11-26T03:28:30.006Z,19.90
2018-11-26T03:30:58.658Z,19.80
2018-11-26T03:33:27.325Z,19.80
2018-11-26T03:35:56.106Z,19.80
2018-11-26T03:38:39.633Z,19.80
2018-11-26T03:41:08.211Z,19.80
2018-11-26T03:43:36.918Z,19.80
2018-11-26T03:46:05.756Z,19.80
2018-11-26T03:48:34.312Z,19.80
2018-11-26T03:51:02.970Z,19.80
2018-11-26T03:53:31.632Z,19.80
2018-11-26T03:56:00.271Z,19.70
2018-11-26T03:58:28.941Z,19.80
2018-11-26T04:00:57.619Z,19.70
2018-11-26T04:03:26.262Z,19.70
2018-11-26T04:05:54.758Z,19.70
2018-11-26T04:08:23.300Z,19.70
2018-11-26T04:10:51.898Z,19.70
2018-11-26T04:13:20.544Z,19.70
2018-11-26T04:15:49.091Z,19.70
2018-11-26T04:18:17.729Z,19.70
2018-11-26T04:20:46.185Z,19.70
2018-11-26T04:23:14.765Z,19.60
2018-11-26T04:25:43.406Z,19.70
2018-11-26T04:28:11.889Z,19.70
2018-11-26T04:30:40.439Z,19.60
2018-11-26T04:33:09.084Z,19.60
2018-11-26T04:35:37.596Z,19.60
2018-11-26T04:38:06.262Z,19.60
2018-11-26T04:40:34.968Z,19.60
2018-11-26T04:43:03.415Z,19.70
2018-11-26T04:45:31.894Z,19.60
2018-11-26T04:48:00.346Z,19.60
2018-11-26T04:50:29.029Z,19.60
2018-11-26T04:52:58.919Z,19.60
2018-11-26T04:55:28.752Z,19.60
2018-11-26T04:57:57.352Z,19.60
2018-11-26T05:00:25.884Z,19.60
2018-11-26T05:02:54.507Z,19.60
2018-11-26T05:05:22.990Z,19.50
2018-11-26T05:07:51.522Z,19.50
2018-11-26T05:10:20.148Z,19.50
2018-11-26T05:12:48.869Z,19.60
2018-11-26T05:15:17.409Z,19.50
2018-11-26T05:17:46.026Z,19.50
2018-11-26T05:20:16.069Z,19.50
2018-11-26T05:22:45.078Z,19.50
2018-11-26T05:25:13.698Z,19.50
2018-11-26T05:27:42.191Z,19.50
2018-11-26T05:30:12.343Z,19.50
2018-11-26T05:32:42.135Z,19.50
2018-11-26T05:35:11.509Z,19.50
2018-11-26T05:37:40.133Z,19.40
2018-11-26T05:40:12.653Z,19.40
2018-11-26T05:42:41.716Z,19.50
2018-11-26T05:45:11.919Z,19.50
2018-11-26T05:47:40.623Z,19.50
2018-11-26T05:50:11.075Z,19.40
2018-11-26T05:52:40.791Z,19.40
2018-11-26T05:55:17.138Z,19.40
2018-11-26T05:57:46.744Z,19.40
2018-11-26T06:00:26.182Z,19.40
2018-11-26T06:02:55.038Z,19.40
2018-11-26T06:05:23.537Z,19.40
2018-11-26T06:07:52.431Z,19.40
2018-11-26T06:10:21.109Z,19.40
2018-11-26T06:12:49.848Z,19.40
2018-11-26T06:15:18.686Z,19.40
2018-11-26T06:17:47.245Z,19.40
2018-11-26T06:20:16.018Z,19.40
2018-11-26T06:22:48.002Z,19.40
2018-11-26T06:25:18.672Z,19.40
2018-11-26T06:27:47.587Z,19.40
2018-11-26T06:30:17.354Z,19.40
2018-11-26T06:32:45.880Z,19.40
2018-11-26T06:35:19.612Z,19.40
2018-11-26T06:37:48.385Z,19.40
2018-11-26T06:40:17.115Z,19.40
2018-11-26T06:42:46.799Z,19.40
2018-11-26T06:45:16.622Z,19.40
2018-11-26T06:47:45.251Z,19.40
2018-11-26T06:50:15.171Z,19.40
2018-11-26T06:52:44.370Z,19.40
2018-11-26T06:55:14.981Z,19.40
2018-11-26T06:57:44.434Z,19.40
2018-11-26T07:00:15.887Z,19.50
2018-11-26T07:02:45.394Z,19.50
2018-11-26T07:05:20.976Z,19.50
2018-11-26T07:07:49.799Z,19.50
2018-11-26T07:10:19.233Z,19.50
2018-11-26T07:12:47.885Z,19.60
2018-11-26T07:15:17.570Z,19.60
2018-11-26T07:17:46.081Z,19.60
2018-11-26T07:20:16.875Z,19.60
2018-11-26T07:22:45.631Z,19.60
2018-11-26T07:25:15.007Z,19.60
2018-11-26T07:27:44.780Z,19.60
2018-11-26T07:30:15.426Z,19.60
2018-11-26T07:32:45.151Z,19.60
2018-11-26T07:35:14.888Z,19.70
2018-11-26T07:37:43.492Z,19.70
2018-11-26T07:40:15.069Z,19.70
2018-11-26T07:42:55.028Z,19.70
2018-11-26T07:45:23.531Z,19.70
2018-11-26T07:47:52.674Z,19.70
2018-11-26T07:50:21.391Z,19.70
2018-11-26T07:52:50.015Z,19.70
2018-11-26T07:55:20.150Z,19.70
2018-11-26T07:57:48.710Z,19.60
2018-11-26T08:00:19.030Z,19.70
2018-11-26T08:02:47.970Z,19.70
2018-11-26T08:05:18.492Z,19.60
2018-11-26T08:07:47.225Z,19.60
2018-11-26T08:10:19.497Z,19.60
2018-11-26T08:12:49.001Z,19.60
2018-11-26T08:15:21.025Z,19.60
2018-11-26T08:17:49.535Z,19.60
2018-11-26T08:20:18.250Z,19.70
2018-11-26T08:22:46.780Z,19.60
2018-11-26T08:25:16.862Z,19.60
2018-11-26T08:27:46.257Z,19.60
2018-11-26T08:30:17.127Z,19.60
2018-11-26T08:32:50.073Z,19.60
2018-11-26T08:35:18.602Z,19.60
2018-11-26T08:37:52.401Z,19.60
2018-11-26T08:40:25.015Z,19.60
2018-11-26T08:42:59.654Z,19.60
2018-11-26T08:45:34.305Z,19.60
2018-11-26T08:48:06.172Z,19.60
2018-11-26T08:50:34.755Z,19.60
2018-11-26T08:53:03.540Z,19.60
2018-11-26T08:55:32.007Z,19.60
2018-11-26T08:58:01.421Z,19.50
2018-11-26T09:00:30.608Z,19.50
2018-11-26T09:03:03.059Z,19.50
2018-11-26T09:05:40.713Z,19.50
2018-11-26T09:08:09.394Z,19.50
2018-11-26T09:10:38.254Z,19.40
2018-11-26T09:13:06.816Z,19.40
2018-11-26T09:15:35.305Z,19.40
2018-11-26T09:18:04.804Z,19.40
2018-11-26T09:20:33.305Z,19.40
2018-11-26T09:23:01.929Z,19.40
2018-11-26T09:25:30.708Z,19.40
2018-11-26T09:27:59.822Z,19.40
2018-11-26T09:30:28.556Z,19.40
2018-11-26T09:32:57.084Z,19.30
2018-11-26T09:35:25.659Z,19.30
2018-11-26T09:37:54.100Z,19.30
2018-11-26T09:40:22.561Z,19.30
2018-11-26T09:42:51.067Z,19.30
2018-11-26T09:45:19.904Z,19.30
2018-11-26T09:47:48.732Z,19.30
2018-11-26T09:50:19.511Z,19.30
2018-11-26T09:52:48.539Z,19.20
2018-11-26T09:55:17.246Z,19.20
2018-11-26T09:57:45.696Z,19.30
2018-11-26T10:00:15.225Z,19.20
2018-11-26T10:02:45.184Z,19.20
2018-11-26T10:05:15.053Z,19.20
2018-11-26T10:07:43.476Z,19.20
2018-11-26T10:10:12.588Z,19.20
2018-11-26T10:12:41.646Z,19.20
2018-11-26T10:15:16.373Z,19.20
2018-11-26T10:17:44.999Z,19.20
2018-11-26T10:20:13.646Z,19.20
2018-11-26T10:22:43.346Z,19.20
2018-11-26T10:25:13.369Z,19.20
2018-11-26T10:27:41.874Z,19.20
2018-11-26T10:30:12.162Z,19.20
2018-11-26T10:32:40.910Z,19.10
2018-11-26T10:35:11.191Z,19.20
2018-11-26T10:37:39.787Z,19.10
2018-11-26T10:40:14.661Z,19.20
2018-11-26T10:42:43.183Z,19.10
2018-11-26T10:45:13.467Z,19.10
2018-11-26T10:47:42.314Z,19.10
2018-11-26T10:50:12.846Z,19.10
2018-11-26T10:52:42.944Z,19.10
2018-11-26T10:55:13.113Z,19.10
2018-11-26T10:57:41.599Z,19.10
2018-11-26T11:00:17.115Z,19.10
2018-11-26T11:02:45.954Z,19.10
2018-11-26T11:05:14.675Z,19.10
2018-11-26T11:07:43.140Z,19.10
2018-11-26T11:10:14.080Z,19.00
2018-11-26T11:12:42.482Z,19.10
2018-11-26T11:15:12.068Z,19.00
2018-11-26T11:17:40.667Z,19.00
2018-11-26T11:20:12.142Z,19.00
2018-11-26T11:22:40.642Z,19.00
2018-11-26T11:25:10.522Z,19.00
2018-11-26T11:27:39.293Z,19.00
2018-11-26T11:30:12.788Z,19.00
2018-11-26T11:32:41.600Z,19.00
2018-11-26T11:35:11.595Z,19.00
2018-11-26T11:37:40.795Z,19.00
2018-11-26T11:40:20.547Z,19.00
2018-11-26T11:42:49.699Z,19.00
2018-11-26T11:45:18.960Z,19.00
2018-11-26T11:47:47.724Z,19.00
2018-11-26T11:50:18.583Z,19.00
2018-11-26T11:52:47.317Z,19.00
2018-11-26T11:55:18.937Z,18.90
2018-11-26T11:57:47.517Z,19.00
2018-11-26T12:00:38.831Z,18.90
2018-11-26T12:03:13.835Z,19.00
2018-11-26T12:05:42.322Z,18.90
2018-11-26T12:08:10.896Z,19.00
2018-11-26T12:10:39.951Z,19.00
2018-11-26T12:13:10.332Z,18.90
2018-11-26T12:15:40.582Z,18.90
2018-11-26T12:18:10.423Z,18.90
2018-11-26T12:20:39.023Z,18.90
2018-11-26T12:23:07.542Z,18.90
2018-11-26T12:25:36.935Z,18.90
2018-11-26T12:28:05.485Z,18.90
2018-11-26T12:30:35.828Z,18.90
2018-11-26T12:33:05.249Z,18.90
2018-11-26T12:35:34.284Z,18.90
2018-11-26T12:38:02.816Z,18.90
2018-11-26T12:40:32.442Z,18.90
2018-11-26T12:43:02.447Z,18.90
2018-11-26T12:45:33.516Z,18.90
2018-11-26T12:48:02.295Z,18.90
2018-11-26T12:50:31.443Z,18.90
2018-11-26T12:52:59.928Z,18.90
2018-11-26T12:55:28.416Z,18.90
2018-11-26T12:57:57.573Z,18.90
2018-11-26T13:00:27.338Z,18.90
2018-11-26T13:02:57.521Z,18.90
2018-11-26T13:05:26.092Z,18.90
2018-11-26T13:07:54.708Z,18.90
2018-11-26T13:10:23.736Z,18.90
2018-11-26T13:12:52.675Z,18.90
2018-11-26T13:15:27.416Z,19.00
2018-11-26T13:17:56.100Z,19.00
2018-11-26T13:20:26.551Z,19.10
2018-11-26T13:22:55.887Z,19.10
2018-11-26T13:25:25.930Z,19.20
2018-11-26T13:27:57.394Z,19.20
2018-11-26T13:30:28.059Z,19.30
2018-11-26T13:33:00.795Z,19.40
2018-11-26T13:35:29.420Z,19.50
2018-11-26T13:37:58.107Z,19.60
2018-11-26T13:40:26.657Z,19.60
2018-11-26T13:42:55.219Z,19.70
2018-11-26T13:45:29.608Z,19.80
2018-11-26T13:47:58.526Z,19.80
2018-11-26T13:50:28.863Z,20.00
2018-11-26T13:52:57.564Z,20.00
2018-11-26T13:55:26.031Z,20.10
2018-11-26T13:57:54.640Z,20.20
2018-11-26T14:00:23.117Z,20.20
2018-11-26T14:02:51.724Z,20.30
2018-11-26T14:05:20.253Z,20.40
2018-11-26T14:07:49.222Z,20.50
2018-11-26T14:10:22.706Z,20.50
2018-11-26T14:12:55.940Z,20.60
2018-11-26T14:15:24.726Z,20.70
2018-11-26T14:17:53.514Z,20.80
2018-11-26T14:20:22.001Z,20.80
2018-11-26T14:22:50.472Z,20.90
2018-11-26T14:25:20.049Z,21.00
2018-11-26T14:27:48.861Z,21.00
2018-11-26T14:30:20.235Z,21.10
2018-11-26T14:32:48.796Z,21.10
2018-11-26T14:35:17.491Z,21.10
2018-11-26T14:37:47.487Z,21.10
2018-11-26T14:40:19.912Z,21.10
2018-11-26T14:42:48.415Z,21.20
2018-11-26T14:45:17.000Z,21.20
2018-11-26T14:47:45.676Z,21.20
2018-11-26T14:50:15.382Z,21.20
2018-11-26T14:52:46.084Z,21.20
2018-11-26T14:55:16.590Z,21.20
2018-11-26T14:57:45.489Z,21.30
2018-11-26T15:00:16.471Z,21.30
2018-11-26T15:02:45.135Z,21.30
2018-11-26T15:05:13.847Z,21.30
2018-11-26T15:07:42.413Z,21.40
2018-11-26T15:10:15.014Z,21.40
2018-11-26T15:12:44.115Z,21.40
2018-11-26T15:15:14.755Z,21.50
2018-11-26T15:17:43.901Z,21.50
2018-11-26T15:20:18.195Z,21.50
2018-11-26T15:22:49.197Z,21.60
2018-11-26T15:25:20.196Z,21.70
2018-11-26T15:27:48.777Z,21.70
2018-11-26T15:30:18.684Z,21.70
2018-11-26T15:32:48.708Z,21.80
2018-11-26T15:35:21.043Z,21.90
2018-11-26T15:37:49.869Z,21.90
2018-11-26T15:40:20.870Z,21.90
2018-11-26T15:42:49.992Z,22.00
2018-11-26T15:45:27.521Z,22.00
2018-11-26T15:47:59.695Z,22.10
2018-11-26T15:50:28.772Z,22.10
2018-11-26T15:52:57.447Z,22.10
2018-11-26T15:55:26.716Z,22.20
2018-11-26T15:57:57.088Z,22.20
2018-11-26T16:00:28.275Z,22.20
2018-11-26T16:02:56.779Z,22.20
2018-11-26T16:05:27.574Z,22.30
2018-11-26T16:07:57.753Z,22.40
2018-11-26T16:10:27.556Z,22.40
2018-11-26T16:12:57.448Z,22.50
2018-11-26T16:15:28.577Z,22.50
2018-11-26T16:17:59.309Z,22.50
2018-11-26T16:20:29.530Z,22.50
2018-11-26T16:22:59.359Z,22.60
2018-11-26T16:25:28.643Z,22.60
2018-11-26T16:27:57.696Z,22.70
2018-11-26T16:30:26.192Z,22.70
2018-11-26T16:32:56.007Z,22.80
2018-11-26T16:35:28.784Z,22.80
2018-11-26T16:37:59.608Z,22.90
2018-11-26T16:40:28.645Z,22.90
2018-11-26T16:42:57.794Z,23.00
2018-11-26T16:45:29.241Z,23.00
2018-11-26T16:47:58.683Z,23.10
2018-11-26T16:50:28.532Z,23.10
2018-11-26T16:52:57.311Z,23.10
2018-11-26T16:55:25.892Z,23.20
2018-11-26T16:57:54.752Z,23.20
2018-11-26T17:00:26.497Z,23.20
2018-11-26T17:02:59.063Z,23.30
2018-11-26T17:05:33.938Z,23.30
2018-11-26T17:08:02.883Z,23.40
2018-11-26T17:10:31.460Z,23.40
2018-11-26T17:13:00.571Z,23.40
2018-11-26T17:15:29.079Z,23.40
2018-11-26T17:17:57.920Z,23.40
2018-11-26T17:20:26.599Z,23.40
2018-11-26T17:22:55.214Z,23.40
2018-11-26T17:25:24.673Z,23.40
2018-11-26T17:27:53.160Z,23.50
2018-11-26T17:30:24.901Z,23.50
2018-11-26T17:32:57.715Z,23.50
2018-11-26T17:35:26.236Z,23.60
2018-11-26T17:37:55.867Z,23.60
2018-11-26T17:40:25.152Z,23.60
2018-11-26T17:42:53.979Z,23.70
2018-11-26T17:45:23.186Z,23.70
2018-11-26T17:47:55.321Z,23.80
2018-11-26T17:50:26.735Z,23.80
2018-11-26T17:52:57.674Z,23.90
2018-11-26T17:55:26.428Z,23.90
2018-11-26T17:57:55.499Z,23.90
2018-11-26T18:00:29.224Z,23.90
2018-11-26T18:02:58.135Z,23.90
2018-11-26T18:05:28.138Z,23.90
2018-11-26T18:08:07.199Z,23.90
2018-11-26T18:10:53.771Z,23.80
2018-11-26T18:13:22.415Z,23.80
2018-11-26T18:15:50.883Z,23.80
2018-11-26T18:18:20.609Z,23.70
2018-11-26T18:20:49.585Z,23.70
2018-11-26T18:23:19.999Z,23.60
2018-11-26T18:25:49.685Z,23.60
2018-11-26T18:28:21.700Z,23.60
2018-11-26T18:30:56.442Z,23.50
2018-11-26T18:33:25.083Z,23.50
2018-11-26T18:35:53.575Z,23.50
2018-11-26T18:38:23.048Z,23.40
2018-11-26T18:40:52.879Z,23.40
2018-11-26T18:43:22.424Z,23.40
2018-11-26T18:45:50.948Z,23.20
2018-11-26T18:48:19.669Z,23.20
2018-11-26T18:50:49.338Z,23.20
2018-11-26T18:53:18.434Z,23.10
2018-11-26T18:55:47.163Z,23.10
2018-11-26T18:58:15.841Z,23.00
2018-11-26T19:00:47.472Z,23.00
2018-11-26T19:03:19.549Z,22.90
2018-11-26T19:05:50.873Z,22.90
2018-11-26T19:08:19.520Z,22.90
2018-11-26T19:10:49.741Z,22.90
2018-11-26T19:13:21.116Z,22.80
2018-11-26T19:15:51.283Z,22.80
2018-11-26T19:18:26.187Z,22.80
2018-11-26T19:20:55.095Z,22.70
2018-11-26T19:23:25.184Z,22.70
2018-11-26T19:25:54.031Z,22.70
2018-11-26T19:28:23.824Z,22.70
2018-11-26T19:30:52.417Z,22.60
2018-11-26T19:33:21.171Z,22.60
2018-11-26T19:35:50.986Z,22.60
2018-11-26T19:38:19.674Z,22.60
2018-11-26T19:40:48.935Z,22.50
2018-11-26T19:43:18.810Z,22.50
2018-11-26T19:45:49.619Z,22.40
2018-11-26T19:48:18.365Z,22.40
2018-11-26T19:50:47.097Z,22.40
2018-11-26T19:53:15.671Z,22.40
2018-11-26T19:55:45.478Z,22.40
2018-11-26T19:58:14.226Z,22.30
2018-11-26T20:00:42.780Z,22.30
2018-11-26T20:03:16.253Z,22.30
2018-11-26T20:05:51.720Z,22.30
2018-11-26T20:08:21.203Z,22.20
2018-11-26T20:10:51.335Z,22.20
2018-11-26T20:13:20.831Z,22.10
2018-11-26T20:15:49.857Z,22.10
2018-11-26T20:18:18.672Z,22.10
2018-11-26T20:20:47.324Z,22.10
2018-11-26T20:23:16.318Z,22.00
2018-11-26T20:25:46.212Z,22.10
2018-11-26T20:28:14.257Z,22.00
2018-11-26T20:30:43.999Z,22.00
2018-11-26T20:33:12.587Z,22.00
2018-11-26T20:35:41.215Z,22.00
2018-11-26T20:38:11.737Z,21.90
2018-11-26T20:40:40.515Z,21.90
2018-11-26T20:43:10.486Z,21.80
2018-11-26T20:45:44.169Z,21.80
2018-11-26T20:48:12.702Z,21.70
2018-11-26T20:50:44.194Z,21.70
2018-11-26T20:53:12.704Z,21.70
2018-11-26T20:55:41.255Z,21.60
2018-11-26T20:58:09.873Z,21.60
2018-11-26T21:00:40.425Z,21.50
2018-11-26T21:03:10.974Z,21.50
2018-11-26T21:05:40.488Z,21.50
2018-11-26T21:08:09.152Z,21.50
2018-11-26T21:10:37.906Z,21.40
2018-11-26T21:13:07.046Z,21.40
2018-11-26T21:15:35.955Z,21.40
2018-11-26T21:18:08.401Z,21.50
2018-11-26T21:20:48.246Z,21.60
2018-11-26T21:23:22.550Z,21.60
2018-11-26T21:25:51.241Z,21.70
2018-11-26T21:28:21.398Z,21.80
2018-11-26T21:30:52.286Z,21.90
2018-11-26T21:33:21.089Z,21.90
2018-11-26T21:35:51.852Z,22.00
2018-11-26T21:38:24.198Z,22.10
2018-11-26T21:40:53.262Z,22.10
2018-11-26T21:43:21.756Z,22.10
2018-11-26T21:45:54.144Z,22.20
2018-11-26T21:48:22.956Z,22.30
2018-11-26T21:50:51.465Z,22.40
2018-11-26T21:53:20.097Z,22.40
2018-11-26T21:55:48.719Z,22.40
2018-11-26T21:58:17.253Z,22.40
2018-11-26T22:00:46.432Z,22.50
2018-11-26T22:03:15.314Z,22.50
2018-11-26T22:05:44.628Z,22.60
2018-11-26T22:08:13.415Z,22.60
2018-11-26T22:10:42.998Z,22.60
2018-11-26T22:13:15.605Z,22.60
2018-11-26T22:15:45.027Z,22.60
2018-11-26T22:18:13.654Z,22.60
2018-11-26T22:20:42.330Z,22.60
2018-11-26T22:23:11.162Z,22.60
2018-11-26T22:25:40.412Z,22.60
2018-11-26T22:28:10.888Z,22.60
2018-11-26T22:30:40.323Z,22.60
2018-11-26T22:33:09.198Z,22.50
2018-11-26T22:35:37.769Z,22.60
2018-11-26T22:38:07.038Z,22.50
2018-11-26T22:40:35.671Z,22.50
2018-11-26T22:43:04.648Z,22.50
2018-11-26T22:45:34.211Z,22.50
2018-11-26T22:48:09.603Z,22.50
2018-11-26T22:50:41.607Z,22.40
2018-11-26T22:53:10.517Z,22.40
2018-11-26T22:55:40.007Z,22.40
2018-11-26T22:58:10.128Z,22.30
2018-11-26T23:00:48.535Z,22.30
2018-11-26T23:03:19.051Z,22.20
2018-11-26T23:05:47.567Z,22.30
2018-11-26T23:08:16.189Z,22.30
2018-11-26T23:10:44.882Z,22.20
2018-11-26T23:13:13.559Z,22.10
2018-11-26T23:15:42.380Z,22.10
2018-11-26T23:18:10.848Z,22.10
2018-11-26T23:20:39.324Z,22.00
2018-11-26T23:23:07.892Z,22.00
2018-11-26T23:25:36.357Z,22.00
2018-11-26T23:28:04.839Z,22.00
2018-11-26T23:30:33.326Z,21.90
2018-11-26T23:33:02.971Z,21.90
2018-11-26T23:35:31.461Z,21.90
2018-11-26T23:38:00.083Z,21.80
2018-11-26T23:40:28.581Z,21.80
2018-11-26T23:42:57.115Z,21.80
2018-11-26T23:45:26.734Z,21.80
2018-11-26T23:47:55.465Z,21.70
2018-11-26T23:50:23.935Z,21.70
2018-11-26T23:52:52.429Z,21.70
2018-11-26T23:55:23.975Z,21.60
2018-11-26T23:57:52.720Z,21.60
